Time;durP1;ratioP1;P1;durP2;ratioP2;P2;SDS_P1;SDS_P2;PMS_P1;PMS_P2;Temp;Humidity;BMP_temperature;BMP_pressure;BME280_temperature;BME280_humidity;BME280_pressure;Samples;Min_cycle;Max_cycle;Signal;HPM_P1;HPM_P2
2022/10/20 00:00:47;;;;;;;;;;;;;;;26.80;30.78;100919.81;5074230;28;1084;-42
2022/10/20 00:03:13;;;;;;;;;;;;;;;26.78;30.74;100920.84;5070034;28;1898;-42
2022/10/20 00:05:38;;;;;;;;;;;;;;;26.83;30.49;100922.16;5072345;28;1116;-44
2022/10/20 00:08:04;;;;;;;;;;;;;;;26.77;30.83;100934.50;5064404;28;1136;-43
2022/10/20 00:10:30;;;;;;;;;;;;;;;26.85;30.86;100933.59;5078011;28;1190;-43
2022/10/20 00:12:55;;;;;;;;;;;;;;;26.84;30.65;100940.03;5058704;28;1230;-43
2022/10/20 00:15:20;;;;;;;;;;;;;;;26.88;30.32;100936.81;5058189;28;1092;-43
2022/10/20 00:17:46;;;;;;;;;;;;;;;26.81;30.61;100933.13;5072511;28;1128;-42
2022/10/20 00:20:11;;;;;;;;;;;;;;;26.84;30.84;100940.84;5066088;28;1096;-42
2022/10/20 00:22:36;;;;;;;;;;;;;;;26.86;31.04;100936.13;5064763;28;1879;-43
2022/10/20 00:25:01;;;;;;;;;;;;;;;26.84;30.81;100934.63;5072042;28;921;-42
2022/10/20 00:27:27;;;;;;;;;;;;;;;26.78;30.89;100928.94;5065863;28;1202;-43
2022/10/20 00:29:52;;;;;;;;;;;;;;;26.71;31.65;100933.34;5071704;28;1156;-43
2022/10/20 00:32:17;;;;;;;;;;;;;;;26.74;32.51;100941.06;5057616;28;1140;-43
2022/10/20 00:34:43;;;;;;;;;;;;;;;26.78;32.39;100944.28;5062000;28;1108;-43
2022/10/20 00:37:08;;;;;;;;;;;;;;;26.79;32.82;100948.66;5068111;28;1199;-42
2022/10/20 00:39:33;;;;;;;;;;;;;;;26.74;33.02;100951.88;5057584;28;1202;-43
2022/10/20 00:42:01;;;;;;;;;;;;;;;26.82;33.15;100948.31;5071310;28;1902;-43
2022/10/20 00:44:44;;;;;;;;;;;;;;;26.74;33.46;100945.66;5057427;28;1104;-43
2022/10/20 00:47:10;;;;;;;;;;;;;;;26.74;33.75;100948.34;5071467;28;1149;-43
2022/10/20 00:49:36;;;;;;;;;;;;;;;26.68;33.76;100936.38;5074715;28;914;-43
2022/10/20 00:52:01;;;;;;;;;;;;;;;26.81;32.99;100943.91;5062747;28;2465;-42
2022/10/20 00:54:26;;;;;;;;;;;;;;;26.72;33.62;100953.06;5039577;28;1196;-42
2022/10/20 00:56:52;;;;;;;;;;;;;;;26.63;33.74;100952.25;5057194;28;1135;-43
2022/10/20 00:59:19;;;;;;;;;;;;;;;26.54;33.45;100954.16;5039477;28;1148;-43
2022/10/20 01:01:44;;;;;;;;;;;;;;;26.59;33.50;100953.63;5039485;28;986;-43
2022/10/20 01:04:09;;;;;;;;;;;;;;;26.58;33.64;100958.19;5057432;28;1898;-42
2022/10/20 01:06:34;;;;;;;;;;;;;;;26.56;33.39;100964.78;5057384;28;1159;-43
2022/10/20 01:09:00;;;;;;;;;;;;;;;26.61;32.92;100965.94;5057736;28;1145;-43
2022/10/20 01:11:28;;;;;;;;;;;;;;;26.64;33.40;100970.97;5057146;28;1279;-43
2022/10/20 01:14:20;;;;;;;;;;;;;;;26.71;33.06;100975.69;5056871;28;1161;-43
2022/10/20 01:16:54;;;;;;;;;;;;;;;26.72;32.94;100978.22;5056058;28;1285;-43
2022/10/20 01:19:38;;;;;;;;;;;;;;;26.66;33.09;100976.19;5057123;28;1214;-43
2022/10/20 01:22:13;;;;;;;;;;;;;;;26.61;32.64;100990.22;5057294;28;1965;-43
2022/10/20 01:24:44;;;;;;;;;;;;;;;26.63;32.98;100987.34;5063424;28;1215;-43
2022/10/20 01:27:22;;;;;;;;;;;;;;;26.69;32.72;100991.22;5049228;28;1203;-43
2022/10/20 01:29:47;;;;;;;;;;;;;;;26.57;32.59;100982.63;5056978;28;1128;-42
2022/10/20 01:32:15;;;;;;;;;;;;;;;26.58;32.38;100982.47;5056812;28;1132;-43
2022/10/20 01:34:44;;;;;;;;;;;;;;;26.56;32.27;100984.50;5068386;28;1175;-43
2022/10/20 01:37:13;;;;;;;;;;;;;;;26.47;32.27;100988.25;5047669;28;1231;-42
2022/10/20 01:39:44;;;;;;;;;;;;;;;26.44;32.27;100984.03;5038769;28;1480;-43
2022/10/20 01:42:14;;;;;;;;;;;;;;;26.40;32.52;100985.38;5056622;28;1902;-43
2022/10/20 01:44:40;;;;;;;;;;;;;;;26.45;31.99;100991.13;5066521;28;1148;-42
2022/10/20 01:47:05;;;;;;;;;;;;;;;26.42;32.32;100986.06;5043230;28;1243;-43
2022/10/20 01:49:30;;;;;;;;;;;;;;;26.43;32.17;100984.19;5038844;28;948;-43
2022/10/20 01:51:56;;;;;;;;;;;;;;;26.40;32.17;100991.63;5057038;28;1152;-43
2022/10/20 01:54:21;;;;;;;;;;;;;;;26.38;32.36;100982.00;5056073;28;1199;-43
2022/10/20 01:56:46;;;;;;;;;;;;;;;26.43;32.18;100987.75;5056446;28;1132;-44
2022/10/20 01:59:18;;;;;;;;;;;;;;;26.43;32.56;100992.28;5056458;28;1112;-43
2022/10/20 02:01:43;;;;;;;;;;;;;;;26.46;32.09;100987.38;5056248;28;1402;-42
2022/10/20 02:04:08;;;;;;;;;;;;;;;26.43;32.03;100990.44;5056397;28;1898;-43
2022/10/20 02:06:34;;;;;;;;;;;;;;;26.36;32.01;100995.66;5046367;28;1552;-43
2022/10/20 02:09:03;;;;;;;;;;;;;;;26.39;32.25;100994.50;5076247;28;1120;-42
2022/10/20 02:11:32;;;;;;;;;;;;;;;26.38;32.23;100995.50;5056213;28;1191;-42
2022/10/20 02:13:58;;;;;;;;;;;;;;;26.34;32.23;101005.78;5055744;28;1135;-43
2022/10/20 02:16:26;;;;;;;;;;;;;;;26.40;31.85;101010.50;5038219;28;1203;-43
2022/10/20 02:18:52;;;;;;;;;;;;;;;26.39;32.15;101008.00;5056718;28;1268;-43
2022/10/20 02:21:17;;;;;;;;;;;;;;;26.35;31.89;101015.56;5038701;28;1188;-42
2022/10/20 02:23:43;;;;;;;;;;;;;;;26.29;31.97;101019.75;5038629;28;1902;-42
2022/10/20 02:26:08;;;;;;;;;;;;;;;26.31;32.22;101016.06;5051928;28;858;-43
2022/10/20 02:28:34;;;;;;;;;;;;;;;26.37;32.30;101013.56;5038698;28;1215;-43
2022/10/20 02:31:00;;;;;;;;;;;;;;;26.36;31.89;101013.72;5056413;28;1273;-42
2022/10/20 02:33:25;;;;;;;;;;;;;;;26.36;32.12;101021.81;5039630;28;1159;-42
2022/10/20 02:35:54;;;;;;;;;;;;;;;26.38;31.93;101022.47;5076359;28;1159;-43
2022/10/20 02:38:19;;;;;;;;;;;;;;;26.36;31.60;101030.72;5076380;28;875;-44
2022/10/20 02:40:45;;;;;;;;;;;;;;;26.27;32.10;101031.75;5065837;28;1104;-42
2022/10/20 02:43:10;;;;;;;;;;;;;;;26.34;31.90;101023.84;5061973;28;1964;-43
2022/10/20 02:45:35;;;;;;;;;;;;;;;26.29;31.96;101019.75;5062646;28;1166;-43
2022/10/20 02:48:00;;;;;;;;;;;;;;;26.30;31.81;101017.91;5069685;28;1132;-43
2022/10/20 02:50:26;;;;;;;;;;;;;;;26.25;31.93;101013.03;5078397;28;896;-43
2022/10/20 02:52:51;;;;;;;;;;;;;;;26.27;32.04;101020.94;5060373;28;1063;-43
2022/10/20 02:55:16;;;;;;;;;;;;;;;26.25;31.99;101028.38;5059890;28;1160;-43
2022/10/20 02:57:42;;;;;;;;;;;;;;;26.25;32.00;101025.66;5059365;28;1108;-43
2022/10/20 03:00:07;;;;;;;;;;;;;;;26.37;31.78;101032.44;5059873;28;1108;-42
2022/10/20 03:02:32;;;;;;;;;;;;;;;26.33;31.62;101035.63;5059196;28;1957;-43
2022/10/20 03:04:58;;;;;;;;;;;;;;;26.32;31.60;101044.72;5059806;28;1205;-43
2022/10/20 03:07:23;;;;;;;;;;;;;;;26.28;32.94;101046.91;5064617;28;2371;-42
2022/10/20 03:09:49;;;;;;;;;;;;;;;26.24;33.19;101050.97;5066898;28;2264;-43
2022/10/20 03:12:14;;;;;;;;;;;;;;;26.22;33.54;101045.75;5066230;28;1879;-41
2022/10/20 03:14:41;;;;;;;;;;;;;;;26.20;33.12;101047.75;5063419;28;2104;-43
2022/10/20 03:17:06;;;;;;;;;;;;;;;26.27;33.01;101048.78;5063956;28;1722;-43
2022/10/20 03:19:32;;;;;;;;;;;;;;;26.24;33.00;101050.97;5071431;28;2115;-43
2022/10/20 03:21:57;;;;;;;;;;;;;;;26.31;32.78;101043.03;5058869;28;2236;-43
2022/10/20 03:24:22;;;;;;;;;;;;;;;26.39;32.61;101043.06;5058729;28;1505;-43
2022/10/20 03:26:47;;;;;;;;;;;;;;;26.49;32.09;101048.25;5059142;28;886;-42
2022/10/20 03:29:13;;;;;;;;;;;;;;;26.33;32.30;101058.06;5059045;28;1164;-42
2022/10/20 03:31:38;;;;;;;;;;;;;;;26.37;32.18;101064.81;5063040;28;1183;-43
2022/10/20 03:34:03;;;;;;;;;;;;;;;26.31;32.31;101070.81;5078531;28;1111;-42
2022/10/20 03:36:29;;;;;;;;;;;;;;;26.31;32.52;101065.44;5066373;28;1155;-43
2022/10/20 03:38:54;;;;;;;;;;;;;;;26.27;32.36;101072.19;5076292;28;1120;-43
2022/10/20 03:41:19;;;;;;;;;;;;;;;26.29;32.21;101072.88;5068563;28;1171;-43
2022/10/20 03:43:44;;;;;;;;;;;;;;;26.31;31.91;101075.41;5058263;28;1902;-43
2022/10/20 03:46:10;;;;;;;;;;;;;;;26.26;32.05;101074.03;5058669;28;1171;-42
2022/10/20 03:48:37;;;;;;;;;;;;;;;26.28;32.21;101073.88;5072455;28;1092;-42
2022/10/20 03:51:02;;;;;;;;;;;;;;;25.17;27.85;101075.66;5073066;28;2331;-43
2022/10/20 03:53:28;;;;;;;;;;;;;;;23.53;29.60;101075.88;5078637;28;1084;-41
2022/10/20 03:55:53;;;;;;;;;;;;;;;24.44;30.04;101083.94;5058286;28;1462;-43
2022/10/20 03:58:18;;;;;;;;;;;;;;;25.17;29.08;101081.03;5058741;28;1096;-43
2022/10/20 04:00:44;;;;;;;;;;;;;;;25.53;30.07;101090.78;5057763;28;1526;-39
2022/10/20 04:03:09;;;;;;;;;;;;;;;25.82;31.95;101090.53;5057697;28;1961;-43
2022/10/20 04:05:34;;;;;;;;;;;;;;;25.94;31.77;101102.69;5059442;28;1120;-41
2022/10/20 04:08:00;;;;;;;;;;;;;;;26.03;31.60;101111.59;5070385;28;1092;-42
2022/10/20 04:10:25;;;;;;;;;;;;;;;25.99;31.34;101105.69;5057870;28;1147;-42
2022/10/20 04:12:50;;;;;;;;;;;;;;;26.14;31.28;101105.88;5057490;28;1171;-42
2022/10/20 04:15:17;;;;;;;;;;;;;;;26.24;31.31;101108.41;5076003;28;933;-42
2022/10/20 04:17:42;;;;;;;;;;;;;;;26.04;31.72;101111.44;5060305;28;1159;-43
2022/10/20 04:20:08;;;;;;;;;;;;;;;26.01;31.51;101111.78;5058129;28;1151;-42
2022/10/20 04:22:33;;;;;;;;;;;;;;;25.93;32.71;101109.06;5057773;28;2655;-53
2022/10/20 04:24:59;;;;;;;;;;;;;;;26.16;32.18;101113.81;5057875;28;1120;-51
2022/10/20 04:27:24;;;;;;;;;;;;;;;26.24;31.87;101119.19;5057352;28;930;-41
2022/10/20 04:29:49;;;;;;;;;;;;;;;26.22;31.54;101123.94;5057696;28;1167;-40
2022/10/20 04:32:15;;;;;;;;;;;;;;;26.41;31.29;101127.31;5057964;28;1215;-39
2022/10/20 04:34:40;;;;;;;;;;;;;;;26.40;31.15;101129.19;5069278;28;1187;-39
2022/10/20 04:37:05;;;;;;;;;;;;;;;26.37;31.54;101126.00;5074410;28;1211;-39
2022/10/20 04:39:30;;;;;;;;;;;;;;;26.48;31.20;101124.78;5057345;28;1444;-40
2022/10/20 04:41:56;;;;;;;;;;;;;;;26.53;31.40;101127.81;5057618;28;1112;-41
2022/10/20 04:44:21;;;;;;;;;;;;;;;26.48;31.20;101141.81;5057499;28;1902;-38
2022/10/20 04:46:47;;;;;;;;;;;;;;;26.41;31.43;101132.72;5057489;28;1206;-41
2022/10/20 04:49:12;;;;;;;;;;;;;;;26.48;31.65;101141.81;5071221;28;1156;-47
2022/10/20 04:51:37;;;;;;;;;;;;;;;26.34;31.89;101143.34;5056933;28;1867;-47
2022/10/20 04:54:02;;;;;;;;;;;;;;;26.33;31.83;101148.91;5057473;28;1163;-46
2022/10/20 04:56:28;;;;;;;;;;;;;;;26.31;32.44;101146.34;5057265;28;1207;-46
2022/10/20 04:58:54;;;;;;;;;;;;;;;26.32;32.14;101152.59;5056873;28;1131;-44
2022/10/20 05:01:19;;;;;;;;;;;;;;;26.38;31.89;101150.09;5056573;28;1128;-43
2022/10/20 05:03:44;;;;;;;;;;;;;;;26.44;32.12;101163.91;5062159;28;1902;-45
2022/10/20 05:06:11;;;;;;;;;;;;;;;26.39;32.31;101165.25;5075826;28;1175;-45
2022/10/20 05:08:36;;;;;;;;;;;;;;;26.41;32.24;101157.00;5076803;28;1131;-44
2022/10/20 05:11:01;;;;;;;;;;;;;;;26.39;32.24;101164.44;5057921;28;1190;-45
2022/10/20 05:13:27;;;;;;;;;;;;;;;26.36;32.29;101168.28;5067059;28;1061;-44
2022/10/20 05:15:52;;;;;;;;;;;;;;;26.38;32.34;101171.66;5060746;28;993;-44
2022/10/20 05:18:17;;;;;;;;;;;;;;;26.34;32.08;101170.31;5056576;28;1120;-44
2022/10/20 05:20:43;;;;;;;;;;;;;;;26.35;32.31;101174.72;5060134;28;2362;-45
2022/10/20 05:23:08;;;;;;;;;;;;;;;26.34;32.47;101186.50;5062466;28;1910;-47
2022/10/20 05:25:35;;;;;;;;;;;;;;;26.35;32.09;101192.72;5064706;28;1163;-43
2022/10/20 05:28:00;;;;;;;;;;;;;;;26.33;32.26;101195.59;5062234;28;922;-43
2022/10/20 05:30:25;;;;;;;;;;;;;;;26.35;32.50;101196.28;5076313;28;1123;-42
2022/10/20 05:32:51;;;;;;;;;;;;;;;26.37;32.12;101190.72;5060507;28;1179;-44
2022/10/20 05:35:16;;;;;;;;;;;;;;;26.31;32.06;101202.97;5056861;28;1211;-43
2022/10/20 05:37:41;;;;;;;;;;;;;;;26.36;32.05;101205.22;5056743;28;1112;-43
2022/10/20 05:40:07;;;;;;;;;;;;;;;26.39;32.21;101204.88;5075870;28;917;-43
2022/10/20 05:42:34;;;;;;;;;;;;;;;26.41;31.74;101208.25;5070299;28;1906;-43
2022/10/20 05:44:59;;;;;;;;;;;;;;;26.40;32.17;101217.34;5068852;28;1186;-43
2022/10/20 05:47:24;;;;;;;;;;;;;;;26.46;31.68;101215.84;5058222;28;1195;-44
2022/10/20 05:49:50;;;;;;;;;;;;;;;26.43;31.66;101217.03;5056174;28;1100;-45
2022/10/20 05:52:15;;;;;;;;;;;;;;;26.43;32.09;101227.81;5071812;28;1821;-43
2022/10/20 05:54:40;;;;;;;;;;;;;;;26.48;31.51;101230.00;5068209;28;1202;-45
2022/10/20 05:57:05;;;;;;;;;;;;;;;26.48;31.63;101235.41;5056103;28;1135;-43
2022/10/20 05:59:31;;;;;;;;;;;;;;;26.58;31.53;101230.69;5056431;28;1152;-48
2022/10/20 06:01:56;;;;;;;;;;;;;;;26.37;31.92;101242.81;5056194;28;1175;-42
2022/10/20 06:04:22;;;;;;;;;;;;;;;26.38;32.10;101249.88;5071831;28;1989;-39
2022/10/20 06:06:47;;;;;;;;;;;;;;;26.51;31.46;101256.63;5056209;28;1093;-39
2022/10/20 06:09:13;;;;;;;;;;;;;;;26.46;31.87;101259.84;5055693;28;1207;-42
2022/10/20 06:11:38;;;;;;;;;;;;;;;26.57;32.06;101261.41;5055614;28;1183;-42
2022/10/20 06:14:03;;;;;;;;;;;;;;;26.59;31.33;101264.75;5055714;28;1081;-44
2022/10/20 06:16:28;;;;;;;;;;;;;;;26.61;31.13;101272.69;5062051;28;1164;-43
2022/10/20 06:18:55;;;;;;;;;;;;;;;26.49;31.44;101272.16;5064749;28;1143;-40
2022/10/20 06:21:21;;;;;;;;;;;;;;;26.35;31.48;101274.50;5070118;28;1836;-42
2022/10/20 06:23:47;;;;;;;;;;;;;;;26.51;31.36;101292.56;5055249;28;1971;-41
2022/10/20 06:26:13;;;;;;;;;;;;;;;26.54;31.05;101283.31;5056521;28;1155;-41
2022/10/20 06:28:39;;;;;;;;;;;;;;;26.55;31.00;101290.38;5063828;28;1163;-42
2022/10/20 06:31:17;;;;;;;;;;;;;;;26.49;31.08;101286.47;5076062;28;1119;-42
2022/10/20 06:33:43;;;;;;;;;;;;;;;26.45;31.01;101290.53;5059665;28;1077;-42
2022/10/20 06:36:08;;;;;;;;;;;;;;;26.44;30.97;101288.00;5075973;28;1178;-42
2022/10/20 06:38:34;;;;;;;;;;;;;;;26.43;31.37;101291.69;5063143;28;1103;-42
2022/10/20 06:41:00;;;;;;;;;;;;;;;26.44;31.04;101301.50;5068517;28;1131;-41
2022/10/20 06:43:26;;;;;;;;;;;;;;;26.38;31.08;101297.59;5055501;28;1969;-42
2022/10/20 06:45:55;;;;;;;;;;;;;;;26.37;31.09;101307.56;5043159;28;1128;-42
2022/10/20 06:48:20;;;;;;;;;;;;;;;26.39;31.05;101302.00;5064000;28;1159;-43
2022/10/20 06:50:45;;;;;;;;;;;;;;;26.31;31.07;101296.53;5055456;28;1785;-42
2022/10/20 06:53:11;;;;;;;;;;;;;;;26.39;31.04;101310.09;5055908;28;1139;-41
2022/10/20 06:55:36;;;;;;;;;;;;;;;26.53;30.64;101301.34;5055909;28;1155;-42
2022/10/20 06:58:01;;;;;;;;;;;;;;;26.63;31.13;101301.19;5055778;28;1143;-53
2022/10/20 07:00:27;;;;;;;;;;;;;;;26.43;30.69;101326.75;5055694;28;1072;-46
2022/10/20 07:02:52;;;;;;;;;;;;;;;26.53;31.30;101320.22;5059385;28;1971;-49
2022/10/20 07:05:18;;;;;;;;;;;;;;;26.50;30.75;101325.09;5075871;28;1091;-47
2022/10/20 07:07:43;;;;;;;;;;;;;;;26.52;30.45;101340.13;5057989;28;1207;-46
2022/10/20 07:10:09;;;;;;;;;;;;;;;26.47;30.40;101323.59;5055907;28;1120;-44
2022/10/20 07:12:34;;;;;;;;;;;;;;;26.42;30.62;101336.72;5055368;28;1168;-51
2022/10/20 07:14:59;;;;;;;;;;;;;;;26.46;30.55;101338.06;5062995;28;1108;-50
2022/10/20 07:17:25;;;;;;;;;;;;;;;26.51;30.35;101334.88;5075566;28;1273;-45
2022/10/20 07:19:50;;;;;;;;;;;;;;;26.56;30.49;101339.81;5056063;28;1218;-45
2022/10/20 07:22:15;;;;;;;;;;;;;;;26.59;30.03;101343.00;5066144;28;2090;-47
2022/10/20 07:24:40;;;;;;;;;;;;;;;26.67;29.99;101338.63;5061822;28;1178;-45
2022/10/20 07:27:06;;;;;;;;;;;;;;;26.76;30.07;101343.03;5067813;28;1167;-45
2022/10/20 07:29:32;;;;;;;;;;;;;;;26.59;30.29;101353.78;5077730;28;1259;-43
2022/10/20 07:31:57;;;;;;;;;;;;;;;26.57;30.78;101345.03;5065954;28;1207;-44
2022/10/20 07:34:23;;;;;;;;;;;;;;;26.75;29.95;101341.34;5074865;28;1115;-46
2022/10/20 07:36:48;;;;;;;;;;;;;;;26.56;30.30;101346.03;5077540;28;1475;-45
2022/10/20 07:39:14;;;;;;;;;;;;;;;26.68;30.24;101353.81;5058386;28;1147;-44
2022/10/20 07:41:42;;;;;;;;;;;;;;;26.84;30.10;101353.00;5058748;28;1171;-43
2022/10/20 07:44:08;;;;;;;;;;;;;;;26.85;29.57;101360.09;5058701;28;1913;-41
2022/10/20 07:46:33;;;;;;;;;;;;;;;26.87;29.51;101366.16;5058379;28;1112;-41
2022/10/20 07:48:58;;;;;;;;;;;;;;;26.90;29.38;101371.22;5072635;28;1093;-42
2022/10/20 07:51:28;;;;;;;;;;;;;;;26.92;29.36;101362.97;5063635;28;1828;-43
2022/10/20 07:54:05;;;;;;;;;;;;;;;26.83;29.32;101365.66;5076840;28;1104;-44
2022/10/20 07:56:40;;;;;;;;;;;;;;;26.95;29.83;101362.63;5067812;28;1119;-42
2022/10/20 07:59:05;;;;;;;;;;;;;;;26.85;29.57;101370.88;5061989;28;1143;-43
2022/10/20 08:01:31;;;;;;;;;;;;;;;26.86;29.62;101359.09;5040630;28;1161;-41
2022/10/20 08:03:56;;;;;;;;;;;;;;;26.86;29.65;101369.91;5057602;28;1969;-40
2022/10/20 08:06:21;;;;;;;;;;;;;;;26.86;29.33;101373.41;5058416;28;1466;-41
2022/10/20 08:08:46;;;;;;;;;;;;;;;26.78;29.32;101370.69;5057945;28;1108;-41
2022/10/20 08:11:12;;;;;;;;;;;;;;;26.78;29.31;101374.25;5058302;28;1147;-41
2022/10/20 08:13:39;;;;;;;;;;;;;;;26.79;29.36;101367.00;5057944;28;1158;-44
2022/10/20 08:16:05;;;;;;;;;;;;;;;26.70;29.66;101376.94;5042375;28;1597;-42
2022/10/20 08:18:31;;;;;;;;;;;;;;;26.69;29.35;101382.50;5069435;28;1182;-42
2022/10/20 08:21:06;;;;;;;;;;;;;;;26.64;29.60;101391.09;5057358;28;1928;-42
2022/10/20 08:23:31;;;;;;;;;;;;;;;26.65;29.89;101392.78;5070457;28;1980;-41
2022/10/20 08:25:57;;;;;;;;;;;;;;;26.61;29.72;101397.66;5057899;28;1254;-42
2022/10/20 08:28:22;;;;;;;;;;;;;;;26.70;29.84;101401.22;5057057;28;1219;-48
2022/10/20 08:30:47;;;;;;;;;;;;;;;26.64;29.52;101400.00;5057237;28;1148;-42
2022/10/20 08:33:12;;;;;;;;;;;;;;;26.60;29.50;101409.47;5057647;28;1124;-42
2022/10/20 08:35:38;;;;;;;;;;;;;;;26.52;29.66;101409.44;5057396;28;1203;-45
2022/10/20 08:38:06;;;;;;;;;;;;;;;26.57;29.88;101408.94;5057220;28;1112;-47
2022/10/20 08:40:31;;;;;;;;;;;;;;;26.63;29.89;101417.22;5075045;28;1250;-45
2022/10/20 08:42:56;;;;;;;;;;;;;;;26.56;29.93;101426.97;5067408;28;1890;-45
2022/10/20 08:45:23;;;;;;;;;;;;;;;26.63;30.07;101428.03;5056953;28;1194;-42
2022/10/20 08:47:49;;;;;;;;;;;;;;;26.70;30.00;101428.22;5056986;28;1096;-46
2022/10/20 08:50:15;;;;;;;;;;;;;;;26.81;29.65;101443.25;5052641;28;1211;-47
2022/10/20 08:52:41;;;;;;;;;;;;;;;26.92;29.87;101436.72;5051744;28;1805;-45
2022/10/20 08:55:06;;;;;;;;;;;;;;;26.79;29.73;101442.59;5065017;28;1139;-45
2022/10/20 08:57:32;;;;;;;;;;;;;;;26.69;29.94;101447.28;5056556;28;1234;-43
2022/10/20 08:59:58;;;;;;;;;;;;;;;26.73;30.32;101446.78;5039060;28;1180;-42
2022/10/20 09:02:33;;;;;;;;;;;;;;;26.77;30.09;101453.56;5052651;28;1977;-44
2022/10/20 09:04:58;;;;;;;;;;;;;;;26.91;30.02;101448.50;5056638;28;955;-45
2022/10/20 09:07:27;;;;;;;;;;;;;;;26.86;28.73;101446.31;5039051;28;1148;-44
2022/10/20 09:09:54;;;;;;;;;;;;;;;26.76;29.60;101451.84;5056256;28;1510;-42
2022/10/20 09:12:19;;;;;;;;;;;;;;;26.75;30.09;101452.00;5052159;28;1758;-43
2022/10/20 09:14:44;;;;;;;;;;;;;;;26.83;30.18;101454.72;5057472;28;1143;-44
2022/10/20 09:17:14;;;;;;;;;;;;;;;26.87;29.68;101458.81;5056142;28;908;-45
2022/10/20 09:19:39;;;;;;;;;;;;;;;26.83;29.87;101453.88;5038841;28;1180;-45
2022/10/20 09:22:05;;;;;;;;;;;;;;;26.89;29.97;101458.66;5052856;28;2506;-45
2022/10/20 09:24:30;;;;;;;;;;;;;;;26.82;29.81;101461.16;5060835;28;1902;-42
2022/10/20 09:26:55;;;;;;;;;;;;;;;26.81;29.89;101467.53;5038667;28;1206;-41
2022/10/20 09:29:21;;;;;;;;;;;;;;;26.85;30.12;101459.97;5055957;28;836;-42
2022/10/20 09:31:48;;;;;;;;;;;;;;;26.83;30.23;101449.34;5056424;28;1121;-42
2022/10/20 09:34:20;;;;;;;;;;;;;;;26.80;30.17;101465.84;5064119;28;1610;-43
2022/10/20 09:36:46;;;;;;;;;;;;;;;26.84;30.17;101452.88;5075688;28;1155;-43
2022/10/20 09:39:18;;;;;;;;;;;;;;;26.86;30.25;101461.69;5038605;28;1132;-43
2022/10/20 09:41:43;;;;;;;;;;;;;;;26.85;29.77;101460.81;5056232;28;890;-45
2022/10/20 09:44:11;;;;;;;;;;;;;;;26.89;29.84;101459.47;5056630;28;1906;-44
2022/10/20 09:46:37;;;;;;;;;;;;;;;26.88;29.98;101473.13;5037818;28;1136;-45
2022/10/20 09:49:03;;;;;;;;;;;;;;;26.90;29.60;101463.03;5041992;28;1101;-44
2022/10/20 09:51:28;;;;;;;;;;;;;;;26.86;29.55;101467.06;5076045;28;1813;-45
2022/10/20 09:53:57;;;;;;;;;;;;;;;26.87;29.76;101468.75;5057416;28;949;-45
2022/10/20 09:56:24;;;;;;;;;;;;;;;26.99;30.04;101466.59;5046369;28;1136;-42
2022/10/20 09:58:49;;;;;;;;;;;;;;;26.96;29.84;101456.97;5061577;28;1146;-45
2022/10/20 10:01:15;;;;;;;;;;;;;;;26.92;30.01;101458.31;5038016;28;1132;-44
2022/10/20 10:03:43;;;;;;;;;;;;;;;26.98;30.06;101457.66;5055639;28;1965;-44
2022/10/20 10:06:39;;;;;;;;;;;;;;;26.84;30.35;101460.97;5070696;28;995;-43
2022/10/20 10:09:25;;;;;;;;;;;;;;;26.86;30.23;101454.41;5060671;28;1214;-45
2022/10/20 10:12:03;;;;;;;;;;;;;;;26.80;30.26;101451.50;5054692;28;1653;-43
2022/10/20 10:14:29;;;;;;;;;;;;;;;26.87;30.42;101447.16;5055723;28;1215;-43
2022/10/20 10:16:55;;;;;;;;;;;;;;;26.92;30.32;101449.34;5064059;28;1135;-44
2022/10/20 10:19:22;;;;;;;;;;;;;;;26.85;30.48;101444.63;5060232;28;1111;-44
2022/10/20 10:21:50;;;;;;;;;;;;;;;26.76;30.54;101443.75;5045308;28;2544;-42
2022/10/20 10:24:42;;;;;;;;;;;;;;;26.74;30.44;101448.44;5061988;28;1921;-42
2022/10/20 10:27:25;;;;;;;;;;;;;;;26.67;30.27;101451.97;5051818;28;1324;-43
2022/10/20 10:29:51;;;;;;;;;;;;;;;26.69;30.60;101450.81;5070857;28;1163;-43
2022/10/20 10:32:17;;;;;;;;;;;;;;;26.69;30.76;101441.88;5065697;28;1108;-42
2022/10/20 10:35:01;;;;;;;;;;;;;;;26.72;30.28;101431.59;5059438;28;1072;-46
2022/10/20 10:37:27;;;;;;;;;;;;;;;26.57;30.49;101435.91;5061848;28;1088;-44
2022/10/20 10:39:53;;;;;;;;;;;;;;;26.59;30.65;101431.22;5062983;28;1206;-42
2022/10/20 10:42:18;;;;;;;;;;;;;;;26.65;30.59;101433.25;5054949;28;1952;-43
2022/10/20 10:44:48;;;;;;;;;;;;;;;26.65;30.34;101439.50;5055657;28;1151;-45
2022/10/20 10:47:22;;;;;;;;;;;;;;;26.63;30.60;101433.41;5037657;28;1176;-46
2022/10/20 10:49:48;;;;;;;;;;;;;;;26.83;30.47;101438.53;5055347;28;1206;-45
2022/10/20 10:52:16;;;;;;;;;;;;;;;26.85;30.33;101436.53;5069391;28;1828;-42
2022/10/20 10:54:54;;;;;;;;;;;;;;;26.87;30.08;101430.97;5057576;28;1265;-45
2022/10/20 10:57:28;;;;;;;;;;;;;;;26.83;30.12;101438.53;5061040;28;1187;-45
2022/10/20 10:59:54;;;;;;;;;;;;;;;26.71;27.94;101429.06;5079516;28;1076;-44
2022/10/20 11:02:24;;;;;;;;;;;;;;;26.67;29.12;101425.84;5046311;28;1886;-44
2022/10/20 11:04:56;;;;;;;;;;;;;;;26.72;30.40;101423.50;5058930;28;1160;-46
2022/10/20 11:07:28;;;;;;;;;;;;;;;26.72;29.93;101419.94;5041193;28;1171;-44
2022/10/20 11:09:53;;;;;;;;;;;;;;;26.64;30.00;101418.09;5058753;28;1549;-44
2022/10/20 11:12:21;;;;;;;;;;;;;;;26.47;29.32;101415.31;5059064;28;1160;-44
2022/10/20 11:14:50;;;;;;;;;;;;;;;26.63;30.11;101414.53;5058796;28;1179;-44
2022/10/20 11:17:32;;;;;;;;;;;;;;;26.74;30.38;101412.53;5066271;28;1160;-44
2022/10/20 11:19:57;;;;;;;;;;;;;;;26.91;29.81;101418.81;5041352;28;1097;-41
2022/10/20 11:22:28;;;;;;;;;;;;;;;26.85;29.82;101414.94;5058805;28;2592;-42
2022/10/20 11:24:54;;;;;;;;;;;;;;;26.87;29.64;101417.47;5058526;28;1151;-43
2022/10/20 11:27:21;;;;;;;;;;;;;;;26.83;29.94;101408.84;5070076;28;1263;-43
2022/10/20 11:29:51;;;;;;;;;;;;;;;26.86;30.16;101415.78;5052399;28;1148;-41
2022/10/20 11:32:20;;;;;;;;;;;;;;;26.85;29.76;101417.63;5051343;28;1151;-43
2022/10/20 11:34:57;;;;;;;;;;;;;;;26.86;30.03;101410.38;5070374;28;1195;-43
2022/10/20 11:37:23;;;;;;;;;;;;;;;26.89;29.94;101416.28;5072685;28;1520;-43
2022/10/20 11:39:53;;;;;;;;;;;;;;;26.89;29.74;101410.06;5058698;28;1120;-41
2022/10/20 11:42:22;;;;;;;;;;;;;;;26.91;29.73;101421.50;5057788;28;1902;-43
2022/10/20 11:44:48;;;;;;;;;;;;;;;26.93;30.00;101422.19;5040393;28;1226;-42
2022/10/20 11:47:25;;;;;;;;;;;;;;;26.92;29.96;101422.34;5040637;28;1192;-41
2022/10/20 11:49:51;;;;;;;;;;;;;;;26.89;29.99;101423.56;5040824;28;1077;-39
2022/10/20 11:52:22;;;;;;;;;;;;;;;26.84;29.72;101420.50;5040126;28;1846;-39
2022/10/20 11:55:06;;;;;;;;;;;;;;;26.85;29.69;101420.31;5066822;28;874;-39
2022/10/20 11:57:50;;;;;;;;;;;;;;;26.84;29.79;101424.03;5064092;28;1253;-40
2022/10/20 12:00:35;;;;;;;;;;;;;;;26.64;27.79;101418.09;5078276;28;1080;-39
2022/10/20 12:03:01;;;;;;;;;;;;;;;26.52;25.22;101420.22;5036715;28;1949;-39
2022/10/20 12:05:29;;;;;;;;;;;;;;;26.51;23.58;101415.81;5064785;28;1170;-39
2022/10/20 12:07:54;;;;;;;;;;;;;;;26.54;22.71;101420.91;5040385;28;1219;-40
2022/10/20 12:10:22;;;;;;;;;;;;;;;26.55;24.56;101417.19;5057675;28;1139;-39
2022/10/20 12:12:50;;;;;;;;;;;;;;;26.60;24.58;101420.25;5074962;28;1291;-39
2022/10/20 12:15:20;;;;;;;;;;;;;;;26.71;26.12;101424.50;5050319;28;1171;-39
2022/10/20 12:17:45;;;;;;;;;;;;;;;26.74;24.89;101416.06;5065247;28;1088;-39
2022/10/20 12:20:39;;;;;;;;;;;;;;;26.82;26.55;101423.38;5069577;28;1135;-38
2022/10/20 12:23:05;;;;;;;;;;;;;;;26.90;27.62;101417.97;5057501;28;1967;-38
2022/10/20 12:25:30;;;;;;;;;;;;;;;26.95;27.49;101425.59;5040268;28;1199;-38
2022/10/20 12:28:14;;;;;;;;;;;;;;;26.95;27.60;101428.28;5057551;28;1183;-38
2022/10/20 12:30:40;;;;;;;;;;;;;;;26.94;27.94;101429.31;5057053;28;902;-39
2022/10/20 12:33:18;;;;;;;;;;;;;;;27.02;27.87;101429.34;5059731;28;1096;-38
2022/10/20 12:35:56;;;;;;;;;;;;;;;27.03;27.85;101430.16;5063065;28;1179;-38
2022/10/20 12:38:22;;;;;;;;;;;;;;;27.10;28.03;101424.97;5064035;28;1099;-38
2022/10/20 12:40:51;;;;;;;;;;;;;;;27.08;27.75;101429.66;5057262;28;1179;-38
2022/10/20 12:43:23;;;;;;;;;;;;;;;27.06;28.22;101437.94;5075751;28;1984;-38
2022/10/20 12:45:48;;;;;;;;;;;;;;;27.06;28.40;101429.00;5058238;28;1159;-38
2022/10/20 12:48:18;;;;;;;;;;;;;;;26.99;28.16;101435.03;5039646;28;1156;-38